RCTPRCSS

Guest
Details From RCTP - Taipei Chiang Kai Shek Intl
To RCSS - Sungshan
Flight Number -
Tags Generated
Created
Modified
Stats Distance 17 nm / 32 km
Max Altitude 0 ft / 0 m
Waypoints 2
Social Downloads 6
Likes 0
Share VATSIM

Download

Looking for another format? Having issues loading an existing format? Contact us
Advertisement - Login to hide

Notes

Generated

Route

RCTP RCSS

ID Type Via Altitude Latitude Longitude Leg Dist Tot Dist Heading (true) Name
O RCTP APT - 0 ft / 0 m 25.06173˚ 121.22370˚ - 0 nm - -
O RCSS APT - 0 ft / 0 m 25.07005˚ 121.53962˚ 17 nm 17 nm 88° / 88° -

Altitude Profile

Advertisement - Login to hide

RCTP

Details ICAO RCTP (TPE)
Name Taiwan Taoyuan International
Region Republic of China (Taiwan)
Timezone Asia/Taipei (UTC+8.0)
Stats Elevation 106 ft / 32 m (AMSL)
Location 25.077731° 121.232823°
Runways 2
Magnetic Variation 4.481° W

METAR

RCTP 211130Z 04007KT 9999 FEW020 27/24 Q1010 NOSIG RMK A2985

Decode

TAF

TAF RCTP 211100Z 2112/2218 07008KT 9999 FEW015 BKN032 TEMPO 2117/2123 13005KT 4000 BR FEW007 BKN011 BKN030 BECMG 2123/2201 02008KT BECMG 2212/2214 23005KT

Decode

Departure Runways

ID Width Length Bearing (true) Bearing (mag) Surface Threshold Offset Overrun Length
05 197 ft / 60 m 12,038 ft / 3,669 m 49.17° 53.65° Concrete 0 ft / 0 m 393 ft / 120 m
06 197 ft / 60 m 11,008 ft / 3,355 m 49.12° 53.60° Concrete 0 ft / 0 m 450 ft / 137 m
23 197 ft / 60 m 12,038 ft / 3,669 m 229.18° 233.66° Concrete 0 ft / 0 m 393 ft / 120 m
24 197 ft / 60 m 11,008 ft / 3,355 m 229.13° 233.61° Concrete 0 ft / 0 m 550 ft / 168 m

RCSS

Details ICAO RCSS (TSA)
Name Sungshan
Region Republic of China (Taiwan)
Timezone Asia/Taipei (UTC+8.0)
Stats Elevation 18 ft / 5 m (AMSL)
Location 25.069586° 121.552570°
Runways 1
Magnetic Variation 4.518° W

METAR

RCSS 211130Z 09010KT 9999 FEW025 26/24 Q1010 NOSIG RMK A2985

Decode

TAF

TAF RCSS 211100Z 2112/2212 09010KT 9999 FEW015 BKN032 BECMG 2112/2114 09005KT BECMG 2200/2202 29005KT BECMG 2207/2209 09005KT

Decode

Destination Runways

ID Width Length Bearing (true) Bearing (mag) Surface Threshold Offset Overrun Length
10 197 ft / 60 m 8,566 ft / 2,611 m 92.26° 96.78° Asphalt 0 ft / 0 m 197 ft / 60 m
28 197 ft / 60 m 8,566 ft / 2,611 m 272.27° 276.79° Asphalt 0 ft / 0 m 525 ft / 160 m

Approach Navaids

Runway Type Ident Frequency Range Bearing (true) Bearing (mag) Slope Elevation
10 Localiser ITSG 108.90 MHz 18 nm / 33 km 92.23° 96.75° - 13 ft / 4 m (AMSL)
10 Glidescope ITSG 108.90 MHz 10 nm / 19 km 92.27° 96.78° 3.00° 12 ft / 4 m (AMSL)
10 DME ITSG 108.90 MHz 18 nm / 33 km - - - 18 ft / 5 m (AMSL)
28 Localiser ITLU 108.10 MHz 18 nm / 33 km 264.28° 268.80° - 18 ft / 5 m (AMSL)
28 DME ITLU 108.10 MHz 18 nm / 33 km - - - 18 ft / 5 m (AMSL)

Popular Alternatives